Time;durP1;ratioP1;P1;durP2;ratioP2;P2;SDS_P1;SDS_P2;PMS_P1;PMS_P2;Temp;Humidity;BMP_temperature;BMP_pressure;BME280_temperature;BME280_humidity;BME280_pressure;Samples;Min_cycle;Max_cycle;Signal;HPM_P1;HPM_P2
2022/08/08 00:00:13;;;;;;;;;;;;;;;;;;1023738;28;3052;-49
2022/08/08 00:01:07;;;;;;;;;;;;;;;;;;1033419;28;1936;-52
2022/08/08 00:01:40;;;;;;;;;;;;;;;;;;1033473;28;3790;-49
2022/08/08 00:02:14;;;;;;;;;;;;;;;;;;1032483;28;2625;-52
2022/08/08 00:02:59;;;;;;;;;;;;;;;;;;1029737;28;1304;-48
2022/08/08 00:03:53;;;;;;;;;;;;;;;;;;1030801;28;2105;-48
2022/08/08 00:04:33;;;;;;;;;;;;;;;;;;1025835;28;2808;-48
2022/08/08 00:05:14;;;;;;;;;;;;;;;;;;1027553;28;3784;-51
2022/08/08 00:05:50;;;;;;;;;;;;;;;;;;1025880;28;4199;-50
2022/08/08 00:06:44;;;;;;;;;;;;;;;;;;1026905;28;4311;-49
2022/08/08 00:07:25;;;;;;;;;;;;;;;;;;1016039;29;2201;-48
2022/08/08 00:08:13;;;;;;;;;;;;;;;;;;1018677;28;2269;-49
2022/08/08 00:09:03;;;;;;;;;;;;;;;;;;1029976;28;3174;-50
2022/08/08 00:09:37;;;;;;;;;;;;;;;;;;1027384;28;3412;-49
2022/08/08 00:10:13;;;;;;;;;;;;;;;;;;1029206;28;2413;-50
2022/08/08 00:10:51;;;;;;;;;;;;;;;;;;1029942;28;2165;-48
2022/08/08 00:11:33;;;;;;;;;;;;;;;;;;1028207;28;4338;-49
2022/08/08 00:12:06;;;;;;;;;;;;;;;;;;1028573;28;3913;-51
2022/08/08 00:12:46;;;;;;;;;;;;;;;;;;1029247;28;3419;-50
2022/08/08 00:13:19;;;;;;;;;;;;;;;;;;1029444;28;1880;-51
2022/08/08 00:14:04;;;;;;;;;;;;;;;;;;1030679;28;1385;-49
2022/08/08 00:14:35;;;;;;;;;;;;;;;;;;1029500;28;2061;-51
2022/08/08 00:15:11;;;;;;;;;;;;;;;;;;1033474;28;2429;-47
2022/08/08 00:16:00;;;;;;;;;;;;;;;;;;1033076;28;1535;-50
2022/08/08 00:16:51;;;;;;;;;;;;;;;;;;1032309;28;2258;-48
2022/08/08 00:17:43;;;;;;;;;;;;;;;;;;1024679;28;2182;-49
2022/08/08 00:18:19;;;;;;;;;;;;;;;;;;1028857;28;3212;-50
2022/08/08 00:19:07;;;;;;;;;;;;;;;;;;1029794;28;2089;-50
2022/08/08 00:19:44;;;;;;;;;;;;;;;;;;1031819;28;3428;-50
2022/08/08 00:20:18;;;;;;;;;;;;;;;;;;1032588;28;3957;-49
2022/08/08 00:20:51;;;;;;;;;;;;;;;;;;1030588;28;3177;-51
2022/08/08 00:21:26;;;;;;;;;;;;;;;;;;1032064;28;1690;-52
2022/08/08 00:22:30;;;;;;;;;;;;;;;;;;1033171;28;1643;-51
2022/08/08 00:23:14;;;;;;;;;;;;;;;;;;1025991;28;2130;-48
2022/08/08 00:23:49;;;;;;;;;;;;;;;;;;1025884;28;2042;-49
2022/08/08 00:24:22;;;;;;;;;;;;;;;;;;1021956;29;1976;-50
2022/08/08 00:24:55;;;;;;;;;;;;;;;;;;1021354;29;1904;-49
2022/08/08 00:25:32;;;;;;;;;;;;;;;;;;1021822;28;2021;-48
2022/08/08 00:26:05;;;;;;;;;;;;;;;;;;1023717;28;1576;-51
2022/08/08 00:26:38;;;;;;;;;;;;;;;;;;1023363;28;7107;-51
2022/08/08 00:27:11;;;;;;;;;;;;;;;;;;1026189;28;1894;-50
2022/08/08 00:27:42;;;;;;;;;;;;;;;;;;1024193;28;3258;-53
2022/08/08 00:28:14;;;;;;;;;;;;;;;;;;1026214;28;3581;-48
2022/08/08 00:28:48;;;;;;;;;;;;;;;;;;1025755;28;1576;-48
2022/08/08 00:29:37;;;;;;;;;;;;;;;;;;1026016;28;1814;-51
2022/08/08 00:30:09;;;;;;;;;;;;;;;;;;1025143;28;1944;-51
2022/08/08 00:30:43;;;;;;;;;;;;;;;;;;1024089;28;4127;-50
2022/08/08 00:31:24;;;;;;;;;;;;;;;;;;1025696;28;3255;-52
2022/08/08 00:31:58;;;;;;;;;;;;;;;;;;1025622;28;2103;-49
2022/08/08 00:32:40;;;;;;;;;;;;;;;;;;1026621;28;1599;-48
2022/08/08 00:33:14;;;;;;;;;;;;;;;;;;1026113;28;1717;-50
2022/08/08 00:35:09;;;;;;;;;;;;;;;;;;1025801;28;1319;-47
2022/08/08 00:36:00;;;;;;;;;;;;;;;;;;1026176;28;1853;-50
2022/08/08 00:36:36;;;;;;;;;;;;;;;;;;1023208;28;1346;-49
2022/08/08 00:37:12;;;;;;;;;;;;;;;;;;1026637;28;1695;-50
2022/08/08 00:38:09;;;;;;;;;;;;;;;;;;1024120;28;2189;-51
2022/08/08 00:38:58;;;;;;;;;;;;;;;;;;1024935;28;2013;-51
2022/08/08 00:39:49;;;;;;;;;;;;;;;;;;1024064;28;3260;-48
2022/08/08 00:40:33;;;;;;;;;;;;;;;;;;1025785;28;2015;-50
2022/08/08 00:41:12;;;;;;;;;;;;;;;;;;1025034;28;3147;-49
2022/08/08 00:41:49;;;;;;;;;;;;;;;;;;1024717;28;2256;-50
2022/08/08 00:42:45;;;;;;;;;;;;;;;;;;1026294;28;2164;-50
2022/08/08 00:43:34;;;;;;;;;;;;;;;;;;1025413;28;3395;-47
2022/08/08 00:44:17;;;;;;;;;;;;;;;;;;1025573;28;2165;-47
2022/08/08 00:45:05;;;;;;;;;;;;;;;;;;1024913;28;3117;-50
2022/08/08 00:45:47;;;;;;;;;;;;;;;;;;1024087;28;3938;-50
2022/08/08 00:46:20;;;;;;;;;;;;;;;;;;1026421;28;1608;-51
2022/08/08 00:47:06;;;;;;;;;;;;;;;;;;1024247;28;3774;-51
2022/08/08 00:47:59;;;;;;;;;;;;;;;;;;1026740;28;2335;-50
2022/08/08 00:48:46;;;;;;;;;;;;;;;;;;1022291;28;2521;-51
2022/08/08 00:49:35;;;;;;;;;;;;;;;;;;1025646;28;1718;-51
2022/08/08 00:50:24;;;;;;;;;;;;;;;;;;1023498;28;3381;-48
2022/08/08 00:51:11;;;;;;;;;;;;;;;;;;1025896;28;1680;-49
2022/08/08 00:51:44;;;;;;;;;;;;;;;;;;1026059;28;2416;-53
2022/08/08 00:52:33;;;;;;;;;;;;;;;;;;1025673;28;2128;-49
2022/08/08 00:53:18;;;;;;;;;;;;;;;;;;1025798;28;1909;-50
2022/08/08 00:53:57;;;;;;;;;;;;;;;;;;1026154;28;1910;-51
2022/08/08 00:54:33;;;;;;;;;;;;;;;;;;1024796;28;2383;-50
2022/08/08 00:55:25;;;;;;;;;;;;;;;;;;1026374;28;1660;-48
2022/08/08 00:56:19;;;;;;;;;;;;;;;;;;1025903;28;1662;-50
2022/08/08 00:57:01;;;;;;;;;;;;;;;;;;1025838;28;1883;-51
2022/08/08 00:57:39;;;;;;;;;;;;;;;;;;1025984;28;1753;-51
2022/08/08 00:58:21;;;;;;;;;;;;;;;;;;1024711;28;3287;-51
2022/08/08 00:59:07;;;;;;;;;;;;;;;;;;1025762;28;1854;-51
2022/08/08 01:00:03;;;;;;;;;;;;;;;;;;1025711;28;1808;-50
2022/08/08 01:00:51;;;;;;;;;;;;;;;;;;1025443;28;2946;-48
2022/08/08 01:01:32;;;;;;;;;;;;;;;;;;1024402;28;2669;-49
2022/08/08 01:02:29;;;;;;;;;;;;;;;;;;1026065;28;3101;-50
2022/08/08 01:03:17;;;;;;;;;;;;;;;;;;1025847;28;1660;-48
2022/08/08 01:04:07;;;;;;;;;;;;;;;;;;1026204;28;2110;-49
2022/08/08 01:04:40;;;;;;;;;;;;;;;;;;1025499;28;2225;-53
2022/08/08 01:05:29;;;;;;;;;;;;;;;;;;1024823;28;3283;-49
2022/08/08 01:06:02;;;;;;;;;;;;;;;;;;1025720;28;1731;-50
2022/08/08 01:06:32;;;;;;;;;;;;;;;;;;1025509;28;2117;-51
2022/08/08 01:07:16;;;;;;;;;;;;;;;;;;1025583;28;3079;-50
2022/08/08 01:08:02;;;;;;;;;;;;;;;;;;1024361;28;3429;-49
2022/08/08 01:08:47;;;;;;;;;;;;;;;;;;1025775;28;2406;-48
2022/08/08 01:09:31;;;;;;;;;;;;;;;;;;1026053;28;1754;-48
2022/08/08 01:10:20;;;;;;;;;;;;;;;;;;1025562;28;1906;-49
2022/08/08 01:10:56;;;;;;;;;;;;;;;;;;1024991;28;1754;-51
2022/08/08 01:11:26;;;;;;;;;;;;;;;;;;1022787;28;3299;-50
2022/08/08 01:12:16;;;;;;;;;;;;;;;;;;1026550;28;1673;-49
2022/08/08 01:13:04;;;;;;;;;;;;;;;;;;1025915;28;1977;-50
2022/08/08 01:13:43;;;;;;;;;;;;;;;;;;1025483;28;2502;-51
2022/08/08 01:14:32;;;;;;;;;;;;;;;;;;1026236;28;1594;-48
2022/08/08 01:15:27;;;;;;;;;;;;;;;;;;1024786;28;3294;-49
2022/08/08 01:16:16;;;;;;;;;;;;;;;;;;1023250;28;3850;-49
2022/08/08 01:16:46;;;;;;;;;;;;;;;;;;1019101;28;4037;-51
2022/08/08 01:17:16;;;;;;;;;;;;;;;;;;1021665;28;4035;-49
2022/08/08 01:17:49;;;;;;;;;;;;;;;;;;1020903;28;2363;-51
2022/08/08 01:18:30;;;;;;;;;;;;;;;;;;1021896;28;2219;-50
2022/08/08 01:19:27;;;;;;;;;;;;;;;;;;1025230;28;2724;-50
2022/08/08 01:20:04;;;;;;;;;;;;;;;;;;1024650;28;3217;-51
2022/08/08 01:20:39;;;;;;;;;;;;;;;;;;1025273;28;2897;-49
2022/08/08 01:21:29;;;;;;;;;;;;;;;;;;1024812;28;2805;-51
2022/08/08 01:22:18;;;;;;;;;;;;;;;;;;1024851;28;3025;-51
2022/08/08 01:22:58;;;;;;;;;;;;;;;;;;1029847;28;1735;-48
2022/08/08 01:23:40;;;;;;;;;;;;;;;;;;1029233;28;2228;-51
2022/08/08 01:24:22;;;;;;;;;;;;;;;;;;1029475;28;1642;-51
2022/08/08 01:25:11;;;;;;;;;;;;;;;;;;1030086;28;1745;-48
2022/08/08 01:26:08;;;;;;;;;;;;;;;;;;1029749;28;2396;-48
2022/08/08 01:26:52;;;;;;;;;;;;;;;;;;1017872;29;1441;-49
2022/08/08 01:27:41;;;;;;;;;;;;;;;;;;1019811;28;2994;-50
2022/08/08 01:28:11;;;;;;;;;;;;;;;;;;1025170;28;3159;-48
2022/08/08 01:29:05;;;;;;;;;;;;;;;;;;1023170;28;3449;-50
2022/08/08 01:29:54;;;;;;;;;;;;;;;;;;1012569;29;2237;-49
2022/08/08 01:30:24;;;;;;;;;;;;;;;;;;1017525;28;3490;-49
2022/08/08 01:31:22;;;;;;;;;;;;;;;;;;1029714;28;2241;-50
2022/08/08 01:31:55;;;;;;;;;;;;;;;;;;1028292;28;3791;-47
2022/08/08 01:32:44;;;;;;;;;;;;;;;;;;1028641;28;2288;-48
2022/08/08 01:33:29;;;;;;;;;;;;;;;;;;1029557;28;1709;-48
2022/08/08 01:34:17;;;;;;;;;;;;;;;;;;1029035;28;2772;-49
2022/08/08 01:35:07;;;;;;;;;;;;;;;;;;1027720;28;2379;-48
2022/08/08 01:35:49;;;;;;;;;;;;;;;;;;1027001;28;3214;-53
2022/08/08 01:36:35;;;;;;;;;;;;;;;;;;1029414;28;2578;-52
2022/08/08 01:37:07;;;;;;;;;;;;;;;;;;1028556;28;2742;-50
2022/08/08 01:38:00;;;;;;;;;;;;;;;;;;1029361;28;2194;-52
2022/08/08 01:38:37;;;;;;;;;;;;;;;;;;1029193;28;1694;-51
2022/08/08 01:39:07;;;;;;;;;;;;;;;;;;1029451;28;1923;-50
2022/08/08 01:40:03;;;;;;;;;;;;;;;;;;1029378;28;2406;-51
2022/08/08 01:40:52;;;;;;;;;;;;;;;;;;1029347;28;1827;-48
2022/08/08 01:41:27;;;;;;;;;;;;;;;;;;1029154;28;2366;-50
2022/08/08 01:42:14;;;;;;;;;;;;;;;;;;1029322;28;1911;-50
2022/08/08 01:42:48;;;;;;;;;;;;;;;;;;1029528;28;3280;-47
2022/08/08 01:43:31;;;;;;;;;;;;;;;;;;1029898;28;3339;-51
2022/08/08 01:44:19;;;;;;;;;;;;;;;;;;1029845;28;3275;-48
2022/08/08 01:45:01;;;;;;;;;;;;;;;;;;1030657;28;1831;-48
2022/08/08 01:45:42;;;;;;;;;;;;;;;;;;1029229;28;3112;-49
2022/08/08 01:46:23;;;;;;;;;;;;;;;;;;1029227;28;2857;-49
2022/08/08 01:47:11;;;;;;;;;;;;;;;;;;1026003;28;1642;-50
2022/08/08 01:48:00;;;;;;;;;;;;;;;;;;1026963;28;1308;-50
2022/08/08 01:48:34;;;;;;;;;;;;;;;;;;1026669;28;2208;-50
2022/08/08 01:49:10;;;;;;;;;;;;;;;;;;1030841;28;1938;-48
2022/08/08 01:49:59;;;;;;;;;;;;;;;;;;1029381;28;3320;-48
2022/08/08 01:50:48;;;;;;;;;;;;;;;;;;1029544;28;3107;-50
2022/08/08 01:51:39;;;;;;;;;;;;;;;;;;1029201;28;2729;-50
2022/08/08 01:52:33;;;;;;;;;;;;;;;;;;1030838;28;1963;-50
2022/08/08 01:53:12;;;;;;;;;;;;;;;;;;1030271;28;1714;-48
2022/08/08 01:53:50;;;;;;;;;;;;;;;;;;1030825;28;1708;-52
2022/08/08 01:54:33;;;;;;;;;;;;;;;;;;1030412;28;1873;-48
2022/08/08 01:55:16;;;;;;;;;;;;;;;;;;1030038;28;2019;-49
2022/08/08 01:55:52;;;;;;;;;;;;;;;;;;1030294;28;1770;-47
2022/08/08 01:56:48;;;;;;;;;;;;;;;;;;1030413;28;1556;-49
2022/08/08 01:57:25;;;;;;;;;;;;;;;;;;1027094;28;1734;-51
2022/08/08 01:58:13;;;;;;;;;;;;;;;;;;1030701;28;1895;-50
2022/08/08 01:58:53;;;;;;;;;;;;;;;;;;1030826;28;1588;-51
2022/08/08 01:59:38;;;;;;;;;;;;;;;;;;1030499;28;2692;-49
2022/08/08 02:00:17;;;;;;;;;;;;;;;;;;1028548;28;2515;-49
2022/08/08 02:00:59;;;;;;;;;;;;;;;;;;1030294;28;1668;-48
2022/08/08 02:01:35;;;;;;;;;;;;;;;;;;1029526;28;3193;-49
2022/08/08 02:02:05;;;;;;;;;;;;;;;;;;1030153;28;3043;-50
2022/08/08 02:02:56;;;;;;;;;;;;;;;;;;1029739;28;1671;-51
2022/08/08 02:03:33;;;;;;;;;;;;;;;;;;1029736;28;1843;-52
2022/08/08 02:04:21;;;;;;;;;;;;;;;;;;1030889;28;2483;-49
2022/08/08 02:04:52;;;;;;;;;;;;;;;;;;1029845;28;3213;-48
2022/08/08 02:05:30;;;;;;;;;;;;;;;;;;1030121;28;3161;-51
2022/08/08 02:06:16;;;;;;;;;;;;;;;;;;1030395;28;1669;-49
2022/08/08 02:06:52;;;;;;;;;;;;;;;;;;1030824;28;1366;-51
2022/08/08 02:07:27;;;;;;;;;;;;;;;;;;1030369;28;2005;-50
2022/08/08 02:08:15;;;;;;;;;;;;;;;;;;1029857;28;2806;-49
2022/08/08 02:08:50;;;;;;;;;;;;;;;;;;1030654;28;2236;-49
2022/08/08 02:09:28;;;;;;;;;;;;;;;;;;1030135;28;3599;-51
2022/08/08 02:10:01;;;;;;;;;;;;;;;;;;1030165;28;3103;-51
2022/08/08 02:10:32;;;;;;;;;;;;;;;;;;1029173;28;2305;-48
2022/08/08 02:11:08;;;;;;;;;;;;;;;;;;1030381;28;2402;-48
2022/08/08 02:11:40;;;;;;;;;;;;;;;;;;1029262;28;3323;-51
2022/08/08 02:12:29;;;;;;;;;;;;;;;;;;1029775;28;2729;-48
2022/08/08 02:13:03;;;;;;;;;;;;;;;;;;1031126;28;1709;-49
2022/08/08 02:13:44;;;;;;;;;;;;;;;;;;1029531;28;2146;-49
2022/08/08 02:14:14;;;;;;;;;;;;;;;;;;1029137;28;3288;-49
2022/08/08 02:14:55;;;;;;;;;;;;;;;;;;1030118;28;1622;-49
2022/08/08 02:15:33;;;;;;;;;;;;;;;;;;1029222;28;3372;-49
2022/08/08 02:16:09;;;;;;;;;;;;;;;;;;1029421;28;3673;-48
2022/08/08 02:16:39;;;;;;;;;;;;;;;;;;1029913;28;1995;-49
2022/08/08 02:17:32;;;;;;;;;;;;;;;;;;1030668;28;1573;-48
2022/08/08 02:18:08;;;;;;;;;;;;;;;;;;1029346;28;3265;-49
2022/08/08 02:18:45;;;;;;;;;;;;;;;;;;1029786;28;2261;-48
2022/08/08 02:19:15;;;;;;;;;;;;;;;;;;1030488;28;1817;-50
2022/08/08 02:19:58;;;;;;;;;;;;;;;;;;1029671;28;2929;-50
2022/08/08 02:20:28;;;;;;;;;;;;;;;;;;1029124;28;2669;-50
2022/08/08 02:23:20;;;;;;;;;;;;;;;;;;1025879;28;2032;-49
2022/08/08 02:24:07;;;;;;;;;;;;;;;;;;1025135;28;3381;-50
2022/08/08 02:24:42;;;;;;;;;;;;;;;;;;1026245;28;1697;-49
2022/08/08 02:25:26;;;;;;;;;;;;;;;;;;1026783;28;1675;-50
2022/08/08 02:25:56;;;;;;;;;;;;;;;;;;1025843;28;3358;-50
2022/08/08 02:26:29;;;;;;;;;;;;;;;;;;1026831;28;2014;-53
2022/08/08 02:26:59;;;;;;;;;;;;;;;;;;1025817;28;1842;-49
2022/08/08 02:27:37;;;;;;;;;;;;;;;;;;1026983;28;1352;-48
2022/08/08 02:28:20;;;;;;;;;;;;;;;;;;1027280;28;1628;-52
2022/08/08 02:29:09;;;;;;;;;;;;;;;;;;1029565;28;2069;-51
2022/08/08 02:29:41;;;;;;;;;;;;;;;;;;1028824;28;3260;-52
2022/08/08 02:30:38;;;;;;;;;;;;;;;;;;1029576;28;3225;-47
2022/08/08 02:31:28;;;;;;;;;;;;;;;;;;1010313;29;2483;-49
2022/08/08 02:32:11;;;;;;;;;;;;;;;;;;1023248;28;2138;-49
2022/08/08 02:32:50;;;;;;;;;;;;;;;;;;1025353;28;3122;-49
2022/08/08 02:33:52;;;;;;;;;;;;;;;;;;1026885;28;1650;-49
2022/08/08 02:34:38;;;;;;;;;;;;;;;;;;1029763;28;2208;-50
2022/08/08 02:35:19;;;;;;;;;;;;;;;;;;1029257;28;2659;-48
2022/08/08 02:35:54;;;;;;;;;;;;;;;;;;1029062;28;3009;-48
2022/08/08 02:36:24;;;;;;;;;;;;;;;;;;1026211;28;1625;-51
2022/08/08 02:37:04;;;;;;;;;;;;;;;;;;1025705;28;2560;-49
2022/08/08 02:37:40;;;;;;;;;;;;;;;;;;1026841;28;2079;-49
2022/08/08 02:38:24;;;;;;;;;;;;;;;;;;1026538;28;1722;-50
2022/08/08 02:39:16;;;;;;;;;;;;;;;;;;1027098;28;1689;-50
2022/08/08 02:40:06;;;;;;;;;;;;;;;;;;1025743;28;2708;-48
2022/08/08 02:40:42;;;;;;;;;;;;;;;;;;1025620;28;3235;-51
2022/08/08 02:41:36;;;;;;;;;;;;;;;;;;1024684;28;3985;-50
2022/08/08 02:42:07;;;;;;;;;;;;;;;;;;1026607;28;1675;-49
2022/08/08 02:42:46;;;;;;;;;;;;;;;;;;1025396;28;1864;-53
2022/08/08 02:43:35;;;;;;;;;;;;;;;;;;1025232;28;1996;-51
2022/08/08 02:44:37;;;;;;;;;;;;;;;;;;1026970;28;1612;-48
2022/08/08 02:45:27;;;;;;;;;;;;;;;;;;1017144;29;3261;-51
2022/08/08 02:45:59;;;;;;;;;;;;;;;;;;1017787;29;4320;-50
2022/08/08 02:46:39;;;;;;;;;;;;;;;;;;1024843;28;2950;-50
2022/08/08 02:47:28;;;;;;;;;;;;;;;;;;1026337;28;1942;-48
2022/08/08 02:48:17;;;;;;;;;;;;;;;;;;1026746;28;1213;-49
2022/08/08 02:48:57;;;;;;;;;;;;;;;;;;1027126;28;1619;-50
2022/08/08 02:49:46;;;;;;;;;;;;;;;;;;1025646;28;1695;-49
2022/08/08 02:50:36;;;;;;;;;;;;;;;;;;1026225;28;1550;-50
2022/08/08 02:51:09;;;;;;;;;;;;;;;;;;1026608;28;3940;-49
2022/08/08 02:51:50;;;;;;;;;;;;;;;;;;1029377;28;1662;-47
2022/08/08 02:52:43;;;;;;;;;;;;;;;;;;1029488;28;2808;-49
2022/08/08 02:53:23;;;;;;;;;;;;;;;;;;1017358;28;2697;-49
2022/08/08 02:54:05;;;;;;;;;;;;;;;;;;1025875;28;2677;-51
2022/08/08 02:54:54;;;;;;;;;;;;;;;;;;1026999;28;1822;-48
2022/08/08 02:55:43;;;;;;;;;;;;;;;;;;1026816;28;1698;-48
2022/08/08 02:56:39;;;;;;;;;;;;;;;;;;1026300;28;3291;-51
2022/08/08 02:57:09;;;;;;;;;;;;;;;;;;1025865;28;1684;-50
2022/08/08 02:57:55;;;;;;;;;;;;;;;;;;1026883;28;1588;-48
2022/08/08 02:58:44;;;;;;;;;;;;;;;;;;1028457;28;3014;-48
2022/08/08 02:59:23;;;;;;;;;;;;;;;;;;1030142;28;1914;-49
2022/08/08 03:00:08;;;;;;;;;;;;;;;;;;1029127;28;2033;-51
2022/08/08 03:01:04;;;;;;;;;;;;;;;;;;1028918;28;3198;-49
2022/08/08 03:01:34;;;;;;;;;;;;;;;;;;1012770;29;3764;-49
2022/08/08 03:02:17;;;;;;;;;;;;;;;;;;1012517;28;1908;-49
2022/08/08 03:03:07;;;;;;;;;;;;;;;;;;1020989;28;3614;-49
2022/08/08 03:03:56;;;;;;;;;;;;;;;;;;1022715;28;1900;-49
2022/08/08 03:04:52;;;;;;;;;;;;;;;;;;1026271;28;1956;-50
2022/08/08 03:05:31;;;;;;;;;;;;;;;;;;1026046;28;2496;-51
2022/08/08 03:06:01;;;;;;;;;;;;;;;;;;1026125;28;2894;-51
2022/08/08 03:06:41;;;;;;;;;;;;;;;;;;1026317;28;1815;-48
2022/08/08 03:07:34;;;;;;;;;;;;;;;;;;1026473;28;1896;-50
2022/08/08 03:08:21;;;;;;;;;;;;;;;;;;1025210;28;2188;-49
2022/08/08 03:09:00;;;;;;;;;;;;;;;;;;1026633;28;1670;-49
2022/08/08 03:09:33;;;;;;;;;;;;;;;;;;1025209;28;2133;-50
2022/08/08 03:10:03;;;;;;;;;;;;;;;;;;1025556;28;2418;-51
2022/08/08 03:10:40;;;;;;;;;;;;;;;;;;1026321;28;3062;-50
2022/08/08 03:11:29;;;;;;;;;;;;;;;;;;1026381;28;1551;-50
2022/08/08 03:12:02;;;;;;;;;;;;;;;;;;1025824;28;3208;-49
2022/08/08 03:12:32;;;;;;;;;;;;;;;;;;1025213;28;2310;-49
2022/08/08 03:13:22;;;;;;;;;;;;;;;;;;1026505;28;1731;-51
2022/08/08 03:14:11;;;;;;;;;;;;;;;;;;1026452;28;1162;-49
2022/08/08 03:14:56;;;;;;;;;;;;;;;;;;1026084;28;1826;-49
2022/08/08 03:15:35;;;;;;;;;;;;;;;;;;1024750;28;3185;-50
2022/08/08 03:16:18;;;;;;;;;;;;;;;;;;1025787;28;2900;-51
2022/08/08 03:17:05;;;;;;;;;;;;;;;;;;1026194;28;1724;-47
2022/08/08 03:17:39;;;;;;;;;;;;;;;;;;1025390;28;2493;-49
2022/08/08 03:18:10;;;;;;;;;;;;;;;;;;1030450;28;1675;-48
2022/08/08 03:18:50;;;;;;;;;;;;;;;;;;1027023;28;3334;-49
2022/08/08 03:19:42;;;;;;;;;;;;;;;;;;1026270;28;1661;-49
2022/08/08 03:20:14;;;;;;;;;;;;;;;;;;1020806;28;3346;-49
2022/08/08 03:20:48;;;;;;;;;;;;;;;;;;1022601;28;3409;-49
2022/08/08 03:21:18;;;;;;;;;;;;;;;;;;1024862;28;1972;-50
2022/08/08 03:21:48;;;;;;;;;;;;;;;;;;1027102;28;1560;-48
2022/08/08 03:22:32;;;;;;;;;;;;;;;;;;1028084;28;2698;-48
2022/08/08 03:23:09;;;;;;;;;;;;;;;;;;1030424;28;1920;-50
2022/08/08 03:23:39;;;;;;;;;;;;;;;;;;1030515;28;1482;-49
2022/08/08 03:24:10;;;;;;;;;;;;;;;;;;1030277;28;1273;-50
2022/08/08 03:24:40;;;;;;;;;;;;;;;;;;1025671;28;1887;-51
2022/08/08 03:25:12;;;;;;;;;;;;;;;;;;1025956;28;1695;-50
2022/08/08 03:25:44;;;;;;;;;;;;;;;;;;1025947;28;1907;-49
2022/08/08 03:26:15;;;;;;;;;;;;;;;;;;1026698;28;1572;-48
2022/08/08 03:26:48;;;;;;;;;;;;;;;;;;1029597;28;1667;-50
2022/08/08 03:27:29;;;;;;;;;;;;;;;;;;1028866;28;3295;-49
2022/08/08 03:28:01;;;;;;;;;;;;;;;;;;1024997;28;2441;-49
2022/08/08 03:28:34;;;;;;;;;;;;;;;;;;1026250;28;2517;-49
2022/08/08 03:29:07;;;;;;;;;;;;;;;;;;1026338;28;1828;-49
2022/08/08 03:29:40;;;;;;;;;;;;;;;;;;1026422;28;2076;-48
2022/08/08 03:30:11;;;;;;;;;;;;;;;;;;1029526;28;2953;-49
2022/08/08 03:30:43;;;;;;;;;;;;;;;;;;1029635;28;3500;-50
2022/08/08 03:33:45;;;;;;;;;;;;;;;;;;1030083;28;2768;-50
2022/08/08 03:34:16;;;;;;;;;;;;;;;;;;1030024;28;1741;-51
2022/08/08 03:34:46;;;;;;;;;;;;;;;;;;1029732;28;2019;-50
2022/08/08 03:35:17;;;;;;;;;;;;;;;;;;1029118;28;2721;-51
2022/08/08 03:35:48;;;;;;;;;;;;;;;;;;1026516;28;1836;-49
2022/08/08 03:36:18;;;;;;;;;;;;;;;;;;1023896;28;3092;-49
2022/08/08 03:36:49;;;;;;;;;;;;;;;;;;1024588;28;3313;-49
2022/08/08 03:37:20;;;;;;;;;;;;;;;;;;1024325;28;3426;-52
2022/08/08 03:37:50;;;;;;;;;;;;;;;;;;1030045;28;2276;-51
2022/08/08 03:38:21;;;;;;;;;;;;;;;;;;1029396;28;3116;-51
2022/08/08 03:38:51;;;;;;;;;;;;;;;;;;1026856;28;2165;-49
2022/08/08 03:39:22;;;;;;;;;;;;;;;;;;1025120;28;1691;-49
2022/08/08 03:39:53;;;;;;;;;;;;;;;;;;1025045;28;2709;-51
2022/08/08 03:40:24;;;;;;;;;;;;;;;;;;1025090;28;3252;-50
2022/08/08 03:40:55;;;;;;;;;;;;;;;;;;1025995;28;2788;-53
2022/08/08 03:41:34;;;;;;;;;;;;;;;;;;1026147;28;1669;-50
2022/08/08 03:42:04;;;;;;;;;;;;;;;;;;1025855;28;2590;-51
2022/08/08 03:42:35;;;;;;;;;;;;;;;;;;1026742;28;1575;-50
2022/08/08 03:43:07;;;;;;;;;;;;;;;;;;1030271;28;1622;-50
2022/08/08 03:43:37;;;;;;;;;;;;;;;;;;1025306;28;2027;-48
2022/08/08 03:44:07;;;;;;;;;;;;;;;;;;1025338;28;3237;-49
2022/08/08 03:44:38;;;;;;;;;;;;;;;;;;1025671;28;2066;-50
2022/08/08 03:45:16;;;;;;;;;;;;;;;;;;1025306;28;3410;-51
2022/08/08 03:45:47;;;;;;;;;;;;;;;;;;1029875;28;3573;-49
2022/08/08 03:46:17;;;;;;;;;;;;;;;;;;1026084;28;2500;-49
2022/08/08 03:46:49;;;;;;;;;;;;;;;;;;1026434;28;1700;-49
2022/08/08 03:47:20;;;;;;;;;;;;;;;;;;1026079;28;1394;-53
2022/08/08 03:47:55;;;;;;;;;;;;;;;;;;1025906;28;2262;-49
2022/08/08 03:48:26;;;;;;;;;;;;;;;;;;1029580;28;2773;-51
2022/08/08 03:49:01;;;;;;;;;;;;;;;;;;1029014;28;4401;-48
2022/08/08 03:49:31;;;;;;;;;;;;;;;;;;1028502;28;4005;-48
2022/08/08 03:50:01;;;;;;;;;;;;;;;;;;1027877;28;4912;-51
2022/08/08 03:50:32;;;;;;;;;;;;;;;;;;1028538;28;3833;-50
2022/08/08 03:51:05;;;;;;;;;;;;;;;;;;1028615;28;3657;-50
2022/08/08 03:51:35;;;;;;;;;;;;;;;;;;1028868;28;3264;-50
2022/08/08 03:52:05;;;;;;;;;;;;;;;;;;1028351;28;3403;-50
2022/08/08 03:52:36;;;;;;;;;;;;;;;;;;1028405;28;2948;-52
2022/08/08 03:53:10;;;;;;;;;;;;;;;;;;1027565;28;4089;-52
2022/08/08 03:53:41;;;;;;;;;;;;;;;;;;1026850;28;5356;-50
2022/08/08 03:54:11;;;;;;;;;;;;;;;;;;1028592;28;4002;-49
2022/08/08 03:54:45;;;;;;;;;;;;;;;;;;1030292;28;2877;-49
2022/08/08 03:55:16;;;;;;;;;;;;;;;;;;1024229;28;3260;-51
2022/08/08 03:55:50;;;;;;;;;;;;;;;;;;1021945;28;2836;-49
2022/08/08 03:56:21;;;;;;;;;;;;;;;;;;1020838;28;3262;-48
2022/08/08 03:56:51;;;;;;;;;;;;;;;;;;1021766;28;3795;-49
2022/08/08 03:57:22;;;;;;;;;;;;;;;;;;1023798;28;4051;-49
2022/08/08 03:57:53;;;;;;;;;;;;;;;;;;1027363;28;3732;-49
2022/08/08 03:58:24;;;;;;;;;;;;;;;;;;1024991;28;3183;-49
2022/08/08 03:58:54;;;;;;;;;;;;;;;;;;1025357;28;2953;-49
2022/08/08 03:59:27;;;;;;;;;;;;;;;;;;1024608;28;2417;-49
2022/08/08 03:59:58;;;;;;;;;;;;;;;;;;1025886;28;3413;-49
2022/08/08 04:00:29;;;;;;;;;;;;;;;;;;1029710;28;2666;-49
2022/08/08 04:00:59;;;;;;;;;;;;;;;;;;1029217;28;1844;-50
2022/08/08 04:01:36;;;;;;;;;;;;;;;;;;1029837;28;1822;-49
2022/08/08 04:02:16;;;;;;;;;;;;;;;;;;1029999;28;3010;-49
2022/08/08 04:02:57;;;;;;;;;;;;;;;;;;1029124;28;2686;-48
2022/08/08 04:03:34;;;;;;;;;;;;;;;;;;1029999;28;1628;-51
2022/08/08 04:04:05;;;;;;;;;;;;;;;;;;1028861;28;2712;-52
2022/08/08 04:04:36;;;;;;;;;;;;;;;;;;1026679;28;4292;-47
2022/08/08 04:05:06;;;;;;;;;;;;;;;;;;1029223;28;3564;-50
2022/08/08 04:05:37;;;;;;;;;;;;;;;;;;1028748;28;2346;-51
2022/08/08 04:06:07;;;;;;;;;;;;;;;;;;1027859;28;3976;-50
2022/08/08 04:06:38;;;;;;;;;;;;;;;;;;1025878;28;4179;-48
2022/08/08 04:07:08;;;;;;;;;;;;;;;;;;1029654;28;3765;-50
2022/08/08 04:07:39;;;;;;;;;;;;;;;;;;1030098;28;2058;-49
2022/08/08 04:08:15;;;;;;;;;;;;;;;;;;1024080;28;3272;-49
2022/08/08 04:08:45;;;;;;;;;;;;;;;;;;1024827;28;2743;-49
2022/08/08 04:09:16;;;;;;;;;;;;;;;;;;1026587;28;2026;-48
2022/08/08 04:09:55;;;;;;;;;;;;;;;;;;1028006;28;2990;-52
2022/08/08 04:10:26;;;;;;;;;;;;;;;;;;1028742;28;2545;-51
2022/08/08 04:10:56;;;;;;;;;;;;;;;;;;1026002;28;3203;-50
2022/08/08 04:11:26;;;;;;;;;;;;;;;;;;1025721;28;3046;-48
2022/08/08 04:11:58;;;;;;;;;;;;;;;;;;1024989;28;4586;-49
2022/08/08 04:12:29;;;;;;;;;;;;;;;;;;1025483;28;4223;-51
2022/08/08 04:13:00;;;;;;;;;;;;;;;;;;1025050;28;2785;-51
2022/08/08 04:13:30;;;;;;;;;;;;;;;;;;1030078;28;1673;-49
2022/08/08 04:14:00;;;;;;;;;;;;;;;;;;1029387;28;2119;-51
2022/08/08 04:14:31;;;;;;;;;;;;;;;;;;1030240;28;2750;-49
2022/08/08 04:15:02;;;;;;;;;;;;;;;;;;1027447;28;4052;-49
2022/08/08 04:15:32;;;;;;;;;;;;;;;;;;1029290;28;3815;-51
2022/08/08 04:16:03;;;;;;;;;;;;;;;;;;1029558;28;2100;-50
2022/08/08 04:16:33;;;;;;;;;;;;;;;;;;1030540;28;1945;-48
2022/08/08 04:17:03;;;;;;;;;;;;;;;;;;1029411;28;3611;-50
2022/08/08 04:17:34;;;;;;;;;;;;;;;;;;1030641;28;1678;-48
2022/08/08 04:18:04;;;;;;;;;;;;;;;;;;1030315;28;2162;-48
2022/08/08 04:18:34;;;;;;;;;;;;;;;;;;1029524;28;2169;-49
2022/08/08 04:19:05;;;;;;;;;;;;;;;;;;1029622;28;1841;-47
2022/08/08 04:19:35;;;;;;;;;;;;;;;;;;1029714;28;1900;-47
2022/08/08 04:20:05;;;;;;;;;;;;;;;;;;1029854;28;1685;-49
2022/08/08 04:20:36;;;;;;;;;;;;;;;;;;1029003;28;2890;-49
2022/08/08 04:21:06;;;;;;;;;;;;;;;;;;1029294;28;3510;-49
2022/08/08 04:21:36;;;;;;;;;;;;;;;;;;1029769;28;2119;-48
2022/08/08 04:22:06;;;;;;;;;;;;;;;;;;1029869;28;1603;-47
2022/08/08 04:22:50;;;;;;;;;;;;;;;;;;1029344;28;3119;-49
2022/08/08 04:23:27;;;;;;;;;;;;;;;;;;1030001;28;3755;-49
2022/08/08 04:23:57;;;;;;;;;;;;;;;;;;1030271;28;1919;-48
2022/08/08 04:24:28;;;;;;;;;;;;;;;;;;1032402;28;3184;-49
2022/08/08 04:24:58;;;;;;;;;;;;;;;;;;1028865;28;6082;-48
2022/08/08 04:25:28;;;;;;;;;;;;;;;;;;1029855;28;2298;-49
2022/08/08 04:26:06;;;;;;;;;;;;;;;;;;1029497;28;1718;-48
2022/08/08 04:26:36;;;;;;;;;;;;;;;;;;1029807;28;2392;-48
2022/08/08 04:27:06;;;;;;;;;;;;;;;;;;1029837;28;1588;-49
2022/08/08 04:27:37;;;;;;;;;;;;;;;;;;1028839;28;2303;-52
2022/08/08 04:28:07;;;;;;;;;;;;;;;;;;1029353;28;1732;-48
2022/08/08 04:28:38;;;;;;;;;;;;;;;;;;1029842;28;1844;-49
2022/08/08 04:29:08;;;;;;;;;;;;;;;;;;1029219;28;3105;-51
2022/08/08 04:29:38;;;;;;;;;;;;;;;;;;1030070;28;1596;-52
2022/08/08 04:30:09;;;;;;;;;;;;;;;;;;1028738;28;3277;-49
2022/08/08 04:30:39;;;;;;;;;;;;;;;;;;1029733;28;1981;-50
2022/08/08 04:31:09;;;;;;;;;;;;;;;;;;1027880;28;2775;-50
2022/08/08 04:31:39;;;;;;;;;;;;;;;;;;1030149;28;1973;-49
2022/08/08 04:32:13;;;;;;;;;;;;;;;;;;1030024;28;1982;-51
2022/08/08 04:32:43;;;;;;;;;;;;;;;;;;1029970;28;2152;-52
2022/08/08 04:33:13;;;;;;;;;;;;;;;;;;1029565;28;2337;-50
2022/08/08 04:33:44;;;;;;;;;;;;;;;;;;1029457;28;2532;-51
2022/08/08 04:34:14;;;;;;;;;;;;;;;;;;1027766;28;3832;-51
2022/08/08 04:34:44;;;;;;;;;;;;;;;;;;1027703;28;3945;-51